ROTM(METAR)
05/25 21:56
METAR ROTM 251256Z 07008KT 9999 FEW011 BKN016 BKN024 24/21 A2989 RMK
SLP106 T02390211=
戻る
トップページへ戻る
IMOC Co,.Ltd.